sensor_id;sensor_type;location;lat;lon;timestamp;temperature;humidity
17421;DHT22;8828;48.800;9.540;2022-09-12T00:01:03;17.50;99.90
17421;DHT22;8828;48.800;9.540;2022-09-12T00:03:31;17.50;99.90
17421;DHT22;8828;48.800;9.540;2022-09-12T00:06:05;17.50;99.90
17421;DHT22;8828;48.800;9.540;2022-09-12T00:08:34;17.50;99.90
17421;DHT22;8828;48.800;9.540;2022-09-12T00:11:09;17.40;99.90
17421;DHT22;8828;48.800;9.540;2022-09-12T00:13:39;17.40;99.90
17421;DHT22;8828;48.800;9.540;2022-09-12T00:16:13;17.40;99.90
17421;DHT22;8828;48.800;9.540;2022-09-12T00:18:43;17.40;99.90
17421;DHT22;8828;48.800;9.540;2022-09-12T00:21:14;17.40;99.90
17421;DHT22;8828;48.800;9.540;2022-09-12T00:23:43;17.30;99.90
17421;DHT22;8828;48.800;9.540;2022-09-12T00:26:11;17.30;99.90
17421;DHT22;8828;48.800;9.540;2022-09-12T00:28:40;17.20;99.90
17421;DHT22;8828;48.800;9.540;2022-09-12T00:31:10;17.20;99.90
17421;DHT22;8828;48.800;9.540;2022-09-12T00:33:39;17.20;99.90
17421;DHT22;8828;48.800;9.540;2022-09-12T00:36:08;17.20;99.90
17421;DHT22;8828;48.800;9.540;2022-09-12T00:38:38;17.20;99.90
17421;DHT22;8828;48.800;9.540;2022-09-12T00:41:12;17.20;99.90
17421;DHT22;8828;48.800;9.540;2022-09-12T00:43:43;17.20;99.90
17421;DHT22;8828;48.800;9.540;2022-09-12T00:46:18;17.10;99.90
17421;DHT22;8828;48.800;9.540;2022-09-12T00:48:55;17.10;99.90
17421;DHT22;8828;48.800;9.540;2022-09-12T00:51:25;17.10;99.90
17421;DHT22;8828;48.800;9.540;2022-09-12T00:53:56;17.10;99.90
17421;DHT22;8828;48.800;9.540;2022-09-12T00:56:25;17.10;99.90
17421;DHT22;8828;48.800;9.540;2022-09-12T00:58:57;17.10;99.90
17421;DHT22;8828;48.800;9.540;2022-09-12T01:01:27;17.10;99.90
17421;DHT22;8828;48.800;9.540;2022-09-12T01:03:58;17.10;99.90
17421;DHT22;8828;48.800;9.540;2022-09-12T01:06:29;17.10;99.90
17421;DHT22;8828;48.800;9.540;2022-09-12T01:09:00;17.10;99.90
17421;DHT22;8828;48.800;9.540;2022-09-12T01:11:30;17.10;99.90
17421;DHT22;8828;48.800;9.540;2022-09-12T01:13:58;17.00;99.90
17421;DHT22;8828;48.800;9.540;2022-09-12T01:16:26;17.00;99.90
17421;DHT22;8828;48.800;9.540;2022-09-12T01:19:02;17.00;99.90
17421;DHT22;8828;48.800;9.540;2022-09-12T01:21:42;16.90;99.90
17421;DHT22;8828;48.800;9.540;2022-09-12T01:24:35;16.90;99.90
17421;DHT22;8828;48.800;9.540;2022-09-12T01:27:26;16.90;99.90
17421;DHT22;8828;48.800;9.540;2022-09-12T01:35:43;16.80;99.90
17421;DHT22;8828;48.800;9.540;2022-09-12T01:38:19;16.80;99.90
17421;DHT22;8828;48.800;9.540;2022-09-12T01:40:56;16.80;99.90
17421;DHT22;8828;48.800;9.540;2022-09-12T01:43:30;16.70;99.90
17421;DHT22;8828;48.800;9.540;2022-09-12T01:46:06;16.70;99.90
17421;DHT22;8828;48.800;9.540;2022-09-12T01:48:43;16.60;99.90
17421;DHT22;8828;48.800;9.540;2022-09-12T01:51:17;16.60;99.90
17421;DHT22;8828;48.800;9.540;2022-09-12T01:53:49;16.60;99.90
17421;DHT22;8828;48.800;9.540;2022-09-12T01:56:21;16.70;99.90
17421;DHT22;8828;48.800;9.540;2022-09-12T01:58:55;16.70;99.90
17421;DHT22;8828;48.800;9.540;2022-09-12T02:01:26;16.60;99.90
17421;DHT22;8828;48.800;9.540;2022-09-12T02:04:02;16.60;99.90
17421;DHT22;8828;48.800;9.540;2022-09-12T02:06:32;16.60;99.90
17421;DHT22;8828;48.800;9.540;2022-09-12T02:09:05;16.50;99.90
17421;DHT22;8828;48.800;9.540;2022-09-12T02:11:39;16.50;99.90
17421;DHT22;8828;48.800;9.540;2022-09-12T02:14:11;16.50;99.90
17421;DHT22;8828;48.800;9.540;2022-09-12T02:16:43;16.50;99.90
17421;DHT22;8828;48.800;9.540;2022-09-12T02:19:15;16.60;99.90
17421;DHT22;8828;48.800;9.540;2022-09-12T02:21:47;16.50;99.90
17421;DHT22;8828;48.800;9.540;2022-09-12T02:24:16;16.50;99.90
17421;DHT22;8828;48.800;9.540;2022-09-12T02:26:48;16.50;99.90
17421;DHT22;8828;48.800;9.540;2022-09-12T02:29:17;16.50;99.90
17421;DHT22;8828;48.800;9.540;2022-09-12T02:31:46;16.50;99.90
17421;DHT22;8828;48.800;9.540;2022-09-12T02:34:31;16.50;99.90
17421;DHT22;8828;48.800;9.540;2022-09-12T02:37:08;16.40;99.90
17421;DHT22;8828;48.800;9.540;2022-09-12T02:39:38;16.40;99.90
17421;DHT22;8828;48.800;9.540;2022-09-12T02:42:11;16.40;99.90
17421;DHT22;8828;48.800;9.540;2022-09-12T02:44:40;16.30;99.90
17421;DHT22;8828;48.800;9.540;2022-09-12T02:47:11;16.40;99.90
17421;DHT22;8828;48.800;9.540;2022-09-12T02:49:42;16.40;99.90
17421;DHT22;8828;48.800;9.540;2022-09-12T02:52:10;16.30;99.90
17421;DHT22;8828;48.800;9.540;2022-09-12T02:54:38;16.30;99.90
17421;DHT22;8828;48.800;9.540;2022-09-12T02:57:14;16.30;99.90
17421;DHT22;8828;48.800;9.540;2022-09-12T02:59:49;16.30;99.90
17421;DHT22;8828;48.800;9.540;2022-09-12T03:02:27;16.30;99.90
17421;DHT22;8828;48.800;9.540;2022-09-12T03:05:15;16.30;99.90
17421;DHT22;8828;48.800;9.540;2022-09-12T03:08:03;16.30;99.90
17421;DHT22;8828;48.800;9.540;2022-09-12T03:10:39;16.30;99.90
17421;DHT22;8828;48.800;9.540;2022-09-12T03:13:17;16.30;99.90
17421;DHT22;8828;48.800;9.540;2022-09-12T03:15:54;16.30;99.90
17421;DHT22;8828;48.800;9.540;2022-09-12T03:18:31;16.30;99.90
17421;DHT22;8828;48.800;9.540;2022-09-12T03:21:10;16.20;99.90
17421;DHT22;8828;48.800;9.540;2022-09-12T03:23:46;16.30;99.90
17421;DHT22;8828;48.800;9.540;2022-09-12T03:26:22;16.30;99.90
17421;DHT22;8828;48.800;9.540;2022-09-12T03:28:53;16.30;99.90
17421;DHT22;8828;48.800;9.540;2022-09-12T03:31:22;16.20;99.90
17421;DHT22;8828;48.800;9.540;2022-09-12T03:33:50;16.10;99.90
17421;DHT22;8828;48.800;9.540;2022-09-12T03:36:22;16.00;99.90
17421;DHT22;8828;48.800;9.540;2022-09-12T03:38:51;16.00;99.90
17421;DHT22;8828;48.800;9.540;2022-09-12T03:41:19;15.90;99.90
17421;DHT22;8828;48.800;9.540;2022-09-12T03:43:47;15.90;99.90
17421;DHT22;8828;48.800;9.540;2022-09-12T03:46:15;15.90;99.90
17421;DHT22;8828;48.800;9.540;2022-09-12T03:48:42;15.90;99.90
17421;DHT22;8828;48.800;9.540;2022-09-12T03:51:10;15.90;99.90
17421;DHT22;8828;48.800;9.540;2022-09-12T03:53:40;15.90;99.90
17421;DHT22;8828;48.800;9.540;2022-09-12T03:56:09;15.90;99.90
17421;DHT22;8828;48.800;9.540;2022-09-12T03:58:37;15.90;99.90
17421;DHT22;8828;48.800;9.540;2022-09-12T04:01:08;16.00;99.90
17421;DHT22;8828;48.800;9.540;2022-09-12T04:03:39;15.90;99.90
17421;DHT22;8828;48.800;9.540;2022-09-12T04:06:08;15.90;99.90
17421;DHT22;8828;48.800;9.540;2022-09-12T04:08:37;15.90;99.90
17421;DHT22;8828;48.800;9.540;2022-09-12T04:11:08;15.90;99.90
17421;DHT22;8828;48.800;9.540;2022-09-12T04:13:38;15.90;99.90
17421;DHT22;8828;48.800;9.540;2022-09-12T04:16:07;15.80;99.90
17421;DHT22;8828;48.800;9.540;2022-09-12T04:18:35;15.80;99.90
17421;DHT22;8828;48.800;9.540;2022-09-12T04:21:04;15.60;99.90
17421;DHT22;8828;48.800;9.540;2022-09-12T04:23:33;15.70;99.90
17421;DHT22;8828;48.800;9.540;2022-09-12T04:26:02;15.60;99.90
17421;DHT22;8828;48.800;9.540;2022-09-12T04:28:34;15.60;99.90
17421;DHT22;8828;48.800;9.540;2022-09-12T04:31:03;15.60;99.90
17421;DHT22;8828;48.800;9.540;2022-09-12T04:33:32;15.60;99.90
17421;DHT22;8828;48.800;9.540;2022-09-12T04:36:05;15.50;99.90
17421;DHT22;8828;48.800;9.540;2022-09-12T04:38:34;15.50;99.90
17421;DHT22;8828;48.800;9.540;2022-09-12T04:41:09;15.50;99.90
17421;DHT22;8828;48.800;9.540;2022-09-12T04:43:39;15.50;99.90
17421;DHT22;8828;48.800;9.540;2022-09-12T04:46:08;15.50;99.90
17421;DHT22;8828;48.800;9.540;2022-09-12T04:48:37;15.50;99.90
17421;DHT22;8828;48.800;9.540;2022-09-12T04:51:10;15.50;99.90
17421;DHT22;8828;48.800;9.540;2022-09-12T04:53:39;15.50;99.90
17421;DHT22;8828;48.800;9.540;2022-09-12T04:56:09;15.50;99.90
17421;DHT22;8828;48.800;9.540;2022-09-12T04:58:39;15.50;99.90
17421;DHT22;8828;48.800;9.540;2022-09-12T05:01:09;15.50;99.90
17421;DHT22;8828;48.800;9.540;2022-09-12T05:03:37;15.50;99.90
17421;DHT22;8828;48.800;9.540;2022-09-12T05:06:07;15.50;99.90
17421;DHT22;8828;48.800;9.540;2022-09-12T05:08:36;15.40;99.90
17421;DHT22;8828;48.800;9.540;2022-09-12T05:11:05;15.30;99.90
17421;DHT22;8828;48.800;9.540;2022-09-12T05:13:33;15.30;99.90
17421;DHT22;8828;48.800;9.540;2022-09-12T05:16:05;15.30;99.90
17421;DHT22;8828;48.800;9.540;2022-09-12T05:18:35;15.30;99.90
17421;DHT22;8828;48.800;9.540;2022-09-12T05:21:05;15.30;99.90
17421;DHT22;8828;48.800;9.540;2022-09-12T05:23:33;15.30;99.90
17421;DHT22;8828;48.800;9.540;2022-09-12T05:26:03;15.40;99.90
17421;DHT22;8828;48.800;9.540;2022-09-12T05:28:33;15.40;99.90
17421;DHT22;8828;48.800;9.540;2022-09-12T05:31:03;15.40;99.90
17421;DHT22;8828;48.800;9.540;2022-09-12T05:33:33;15.40;99.90
17421;DHT22;8828;48.800;9.540;2022-09-12T05:36:02;15.40;99.90
17421;DHT22;8828;48.800;9.540;2022-09-12T05:38:30;15.40;99.90
17421;DHT22;8828;48.800;9.540;2022-09-12T05:41:02;15.30;99.90
17421;DHT22;8828;48.800;9.540;2022-09-12T05:43:32;15.30;99.90
17421;DHT22;8828;48.800;9.540;2022-09-12T05:46:02;15.30;99.90
17421;DHT22;8828;48.800;9.540;2022-09-12T05:48:30;15.40;99.90
17421;DHT22;8828;48.800;9.540;2022-09-12T05:51:00;15.40;99.90
17421;DHT22;8828;48.800;9.540;2022-09-12T05:53:29;15.40;99.90
17421;DHT22;8828;48.800;9.540;2022-09-12T05:56:04;15.30;99.90
17421;DHT22;8828;48.800;9.540;2022-09-12T05:58:33;15.30;99.90
17421;DHT22;8828;48.800;9.540;2022-09-12T06:01:04;15.30;99.90
17421;DHT22;8828;48.800;9.540;2022-09-12T06:03:34;15.20;99.90
17421;DHT22;8828;48.800;9.540;2022-09-12T06:06:03;15.20;99.90
17421;DHT22;8828;48.800;9.540;2022-09-12T06:08:32;15.10;99.90
17421;DHT22;8828;48.800;9.540;2022-09-12T06:11:03;15.10;99.90
17421;DHT22;8828;48.800;9.540;2022-09-12T06:13:32;15.10;99.90
17421;DHT22;8828;48.800;9.540;2022-09-12T06:16:06;15.10;99.90
17421;DHT22;8828;48.800;9.540;2022-09-12T06:18:35;15.10;99.90
17421;DHT22;8828;48.800;9.540;2022-09-12T06:21:04;15.10;99.90
17421;DHT22;8828;48.800;9.540;2022-09-12T06:23:32;15.20;99.90
17421;DHT22;8828;48.800;9.540;2022-09-12T06:26:00;15.30;99.90
17421;DHT22;8828;48.800;9.540;2022-09-12T06:28:29;15.30;99.90
17421;DHT22;8828;48.800;9.540;2022-09-12T06:31:01;15.30;99.90
17421;DHT22;8828;48.800;9.540;2022-09-12T06:33:33;15.30;99.90
17421;DHT22;8828;48.800;9.540;2022-09-12T06:36:03;15.30;99.90
17421;DHT22;8828;48.800;9.540;2022-09-12T06:38:38;15.30;99.90
17421;DHT22;8828;48.800;9.540;2022-09-12T06:41:07;15.40;99.90
17421;DHT22;8828;48.800;9.540;2022-09-12T06:43:36;15.40;99.90
17421;DHT22;8828;48.800;9.540;2022-09-12T06:46:04;15.40;99.90
17421;DHT22;8828;48.800;9.540;2022-09-12T06:48:34;15.40;99.90
17421;DHT22;8828;48.800;9.540;2022-09-12T06:51:09;15.50;99.90
17421;DHT22;8828;48.800;9.540;2022-09-12T06:53:39;15.50;99.90
17421;DHT22;8828;48.800;9.540;2022-09-12T06:56:10;15.70;99.90
17421;DHT22;8828;48.800;9.540;2022-09-12T06:58:39;15.80;99.90
17421;DHT22;8828;48.800;9.540;2022-09-12T07:01:09;15.90;99.90
17421;DHT22;8828;48.800;9.540;2022-09-12T07:03:39;16.00;99.90
17421;DHT22;8828;48.800;9.540;2022-09-12T07:06:09;16.10;99.90
17421;DHT22;8828;48.800;9.540;2022-09-12T07:08:38;16.10;99.90
17421;DHT22;8828;48.800;9.540;2022-09-12T07:11:12;16.20;99.90
17421;DHT22;8828;48.800;9.540;2022-09-12T07:13:42;16.30;99.90
17421;DHT22;8828;48.800;9.540;2022-09-12T07:16:10;16.50;99.90
17421;DHT22;8828;48.800;9.540;2022-09-12T07:18:49;16.50;99.90
17421;DHT22;8828;48.800;9.540;2022-09-12T07:21:17;16.60;99.90
17421;DHT22;8828;48.800;9.540;2022-09-12T07:23:45;16.70;99.90
17421;DHT22;8828;48.800;9.540;2022-09-12T07:26:15;16.70;99.90
17421;DHT22;8828;48.800;9.540;2022-09-12T07:28:43;16.70;99.90
17421;DHT22;8828;48.800;9.540;2022-09-12T07:31:13;16.80;99.90
17421;DHT22;8828;48.800;9.540;2022-09-12T07:33:42;16.80;99.90
17421;DHT22;8828;48.800;9.540;2022-09-12T07:36:13;16.90;99.90
17421;DHT22;8828;48.800;9.540;2022-09-12T07:38:42;17.00;99.90
17421;DHT22;8828;48.800;9.540;2022-09-12T07:41:11;17.00;99.90
17421;DHT22;8828;48.800;9.540;2022-09-12T07:43:39;17.10;99.90
17421;DHT22;8828;48.800;9.540;2022-09-12T07:46:08;17.50;99.90
17421;DHT22;8828;48.800;9.540;2022-09-12T07:48:36;18.00;99.90
17421;DHT22;8828;48.800;9.540;2022-09-12T07:51:06;18.40;99.90
17421;DHT22;8828;48.800;9.540;2022-09-12T07:53:37;18.90;99.90
17421;DHT22;8828;48.800;9.540;2022-09-12T07:56:07;19.30;99.90
17421;DHT22;8828;48.800;9.540;2022-09-12T07:58:37;19.70;99.90
17421;DHT22;8828;48.800;9.540;2022-09-12T08:01:07;20.00;99.90
17421;DHT22;8828;48.800;9.540;2022-09-12T08:03:35;20.30;99.90
17421;DHT22;8828;48.800;9.540;2022-09-12T08:06:04;20.70;99.90
17421;DHT22;8828;48.800;9.540;2022-09-12T08:08:32;20.90;99.90
17421;DHT22;8828;48.800;9.540;2022-09-12T08:11:03;21.20;99.90
17421;DHT22;8828;48.800;9.540;2022-09-12T08:13:33;21.40;99.90
17421;DHT22;8828;48.800;9.540;2022-09-12T08:16:03;21.50;99.90
17421;DHT22;8828;48.800;9.540;2022-09-12T08:18:33;21.60;99.90
17421;DHT22;8828;48.800;9.540;2022-09-12T08:21:03;21.70;99.90
17421;DHT22;8828;48.800;9.540;2022-09-12T08:23:31;21.90;99.90
17421;DHT22;8828;48.800;9.540;2022-09-12T08:26:02;22.00;99.90
17421;DHT22;8828;48.800;9.540;2022-09-12T08:28:33;22.20;99.90
17421;DHT22;8828;48.800;9.540;2022-09-12T08:31:02;22.20;99.90
17421;DHT22;8828;48.800;9.540;2022-09-12T08:33:31;22.40;99.90
17421;DHT22;8828;48.800;9.540;2022-09-12T08:36:04;22.80;99.90
17421;DHT22;8828;48.800;9.540;2022-09-12T08:38:32;23.00;99.90
17421;DHT22;8828;48.800;9.540;2022-09-12T08:41:07;23.20;99.90
17421;DHT22;8828;48.800;9.540;2022-09-12T08:43:52;23.20;99.90
17421;DHT22;8828;48.800;9.540;2022-09-12T08:46:26;23.30;99.90
17421;DHT22;8828;48.800;9.540;2022-09-12T08:48:57;23.40;99.90
17421;DHT22;8828;48.800;9.540;2022-09-12T08:51:27;23.60;99.90
17421;DHT22;8828;48.800;9.540;2022-09-12T08:53:56;23.80;99.90
17421;DHT22;8828;48.800;9.540;2022-09-12T08:56:26;24.00;99.90
17421;DHT22;8828;48.800;9.540;2022-09-12T08:58:57;24.30;99.90
17421;DHT22;8828;48.800;9.540;2022-09-12T09:01:30;24.40;99.90
17421;DHT22;8828;48.800;9.540;2022-09-12T09:04:19;24.50;99.90
17421;DHT22;8828;48.800;9.540;2022-09-12T09:07:07;24.60;99.90
17421;DHT22;8828;48.800;9.540;2022-09-12T09:09:52;24.70;99.90
17421;DHT22;8828;48.800;9.540;2022-09-12T09:12:27;24.80;99.90
17421;DHT22;8828;48.800;9.540;2022-09-12T09:18:03;25.10;99.90
17421;DHT22;8828;48.800;9.540;2022-09-12T09:20:37;25.30;99.90
17421;DHT22;8828;48.800;9.540;2022-09-12T09:23:12;25.40;99.90
17421;DHT22;8828;48.800;9.540;2022-09-12T09:25:47;25.70;99.90
17421;DHT22;8828;48.800;9.540;2022-09-12T09:28:21;25.80;99.90
17421;DHT22;8828;48.800;9.540;2022-09-12T09:30:50;25.90;99.90
17421;DHT22;8828;48.800;9.540;2022-09-12T09:33:23;26.00;99.90
17421;DHT22;8828;48.800;9.540;2022-09-12T09:35:59;26.10;99.90
17421;DHT22;8828;48.800;9.540;2022-09-12T09:38:40;26.30;99.90
17421;DHT22;8828;48.800;9.540;2022-09-12T09:41:22;26.40;99.90
17421;DHT22;8828;48.800;9.540;2022-09-12T09:43:55;26.50;99.90
17421;DHT22;8828;48.800;9.540;2022-09-12T09:46:23;26.60;99.90
17421;DHT22;8828;48.800;9.540;2022-09-12T09:48:52;26.80;99.90
17421;DHT22;8828;48.800;9.540;2022-09-12T09:51:24;27.00;99.90
17421;DHT22;8828;48.800;9.540;2022-09-12T09:53:57;27.10;99.90
17421;DHT22;8828;48.800;9.540;2022-09-12T09:56:31;27.20;99.90
17421;DHT22;8828;48.800;9.540;2022-09-12T09:59:09;27.20;99.90
17421;DHT22;8828;48.800;9.540;2022-09-12T10:01:44;27.30;99.10
17421;DHT22;8828;48.800;9.540;2022-09-12T10:04:20;27.30;98.90
17421;DHT22;8828;48.800;9.540;2022-09-12T10:06:50;27.40;97.60
17421;DHT22;8828;48.800;9.540;2022-09-12T10:09:23;27.40;98.60
17421;DHT22;8828;48.800;9.540;2022-09-12T10:11:52;27.60;98.00
17421;DHT22;8828;48.800;9.540;2022-09-12T10:14:40;27.80;97.90
17421;DHT22;8828;48.800;9.540;2022-09-12T10:17:26;27.80;96.90
17421;DHT22;8828;48.800;9.540;2022-09-12T10:20:00;28.00;96.50
17421;DHT22;8828;48.800;9.540;2022-09-12T10:22:48;28.00;95.60
17421;DHT22;8828;48.800;9.540;2022-09-12T10:25:17;27.90;95.60
17421;DHT22;8828;48.800;9.540;2022-09-12T10:27:52;27.90;94.90
17421;DHT22;8828;48.800;9.540;2022-09-12T10:30:22;27.90;94.60
17421;DHT22;8828;48.800;9.540;2022-09-12T10:32:51;27.90;94.20
17421;DHT22;8828;48.800;9.540;2022-09-12T10:35:21;28.00;94.70
17421;DHT22;8828;48.800;9.540;2022-09-12T10:37:52;28.00;93.80
17421;DHT22;8828;48.800;9.540;2022-09-12T10:40:22;28.10;94.70
17421;DHT22;8828;48.800;9.540;2022-09-12T10:42:53;28.20;93.60
17421;DHT22;8828;48.800;9.540;2022-09-12T10:45:26;28.30;93.20
17421;DHT22;8828;48.800;9.540;2022-09-12T10:47:55;28.40;93.00
17421;DHT22;8828;48.800;9.540;2022-09-12T10:50:34;28.60;91.90
17421;DHT22;8828;48.800;9.540;2022-09-12T10:53:13;28.60;91.10
17421;DHT22;8828;48.800;9.540;2022-09-12T10:55:51;28.70;91.60
17421;DHT22;8828;48.800;9.540;2022-09-12T10:58:58;28.60;91.10
17421;DHT22;8828;48.800;9.540;2022-09-12T11:01:36;28.60;87.90
17421;DHT22;8828;48.800;9.540;2022-09-12T11:04:20;28.30;87.60
17421;DHT22;8828;48.800;9.540;2022-09-12T11:07:06;27.70;87.50
17421;DHT22;8828;48.800;9.540;2022-09-12T11:09:42;27.20;87.80
17421;DHT22;8828;48.800;9.540;2022-09-12T11:12:19;26.80;90.10
17421;DHT22;8828;48.800;9.540;2022-09-12T11:15:02;26.40;88.60
17421;DHT22;8828;48.800;9.540;2022-09-12T11:17:43;26.10;88.80
17421;DHT22;8828;48.800;9.540;2022-09-12T11:20:27;25.90;89.50
17421;DHT22;8828;48.800;9.540;2022-09-12T11:26:10;25.60;91.70
17421;DHT22;8828;48.800;9.540;2022-09-12T11:28:47;25.50;91.30
17421;DHT22;8828;48.800;9.540;2022-09-12T11:31:36;25.40;90.70
17421;DHT22;8828;48.800;9.540;2022-09-12T11:34:10;25.30;90.40
17421;DHT22;8828;48.800;9.540;2022-09-12T11:36:43;25.30;90.90
17421;DHT22;8828;48.800;9.540;2022-09-12T11:39:14;25.20;90.20
17421;DHT22;8828;48.800;9.540;2022-09-12T11:41:44;25.20;91.00
17421;DHT22;8828;48.800;9.540;2022-09-12T11:44:18;25.10;90.80
17421;DHT22;8828;48.800;9.540;2022-09-12T11:46:48;25.10;90.90
17421;DHT22;8828;48.800;9.540;2022-09-12T11:49:27;25.10;90.90
17421;DHT22;8828;48.800;9.540;2022-09-12T11:52:05;25.10;91.10
17421;DHT22;8828;48.800;9.540;2022-09-12T11:54:38;25.10;91.30
17421;DHT22;8828;48.800;9.540;2022-09-12T11:57:15;25.10;91.00
17421;DHT22;8828;48.800;9.540;2022-09-12T11:59:48;25.10;91.70
17421;DHT22;8828;48.800;9.540;2022-09-12T12:02:25;25.10;91.80
17421;DHT22;8828;48.800;9.540;2022-09-12T12:05:02;25.10;91.20
17421;DHT22;8828;48.800;9.540;2022-09-12T12:07:38;25.20;90.80
17421;DHT22;8828;48.800;9.540;2022-09-12T12:10:26;25.20;91.40
17421;DHT22;8828;48.800;9.540;2022-09-12T12:12:57;25.30;91.00
17421;DHT22;8828;48.800;9.540;2022-09-12T12:15:26;25.50;91.00
17421;DHT22;8828;48.800;9.540;2022-09-12T12:18:03;25.60;90.70
17421;DHT22;8828;48.800;9.540;2022-09-12T12:20:34;25.90;90.00
17421;DHT22;8828;48.800;9.540;2022-09-12T12:23:02;26.10;89.70
17421;DHT22;8828;48.800;9.540;2022-09-12T12:25:38;26.30;89.60
17421;DHT22;8828;48.800;9.540;2022-09-12T12:28:07;26.60;89.10
17421;DHT22;8828;48.800;9.540;2022-09-12T12:30:59;26.90;87.30
17421;DHT22;8828;48.800;9.540;2022-09-12T12:33:51;27.10;84.30
17421;DHT22;8828;48.800;9.540;2022-09-12T12:36:34;27.30;85.10
17421;DHT22;8828;48.800;9.540;2022-09-12T12:48:56;27.80;80.30
17421;DHT22;8828;48.800;9.540;2022-09-12T12:51:31;28.00;80.50
17421;DHT22;8828;48.800;9.540;2022-09-12T12:54:00;28.00;77.00
17421;DHT22;8828;48.800;9.540;2022-09-12T12:56:34;28.10;80.10
17421;DHT22;8828;48.800;9.540;2022-09-12T12:59:14;28.00;79.30
17421;DHT22;8828;48.800;9.540;2022-09-12T13:01:45;28.10;80.50
17421;DHT22;8828;48.800;9.540;2022-09-12T13:04:21;28.30;79.30
17421;DHT22;8828;48.800;9.540;2022-09-12T13:06:59;28.40;79.40
17421;DHT22;8828;48.800;9.540;2022-09-12T13:09:38;28.50;79.00
17421;DHT22;8828;48.800;9.540;2022-09-12T13:12:20;28.60;79.30
17421;DHT22;8828;48.800;9.540;2022-09-12T13:14:54;28.70;78.30
17421;DHT22;8828;48.800;9.540;2022-09-12T13:17:30;28.90;76.70
17421;DHT22;8828;48.800;9.540;2022-09-12T13:20:15;29.10;78.00
17421;DHT22;8828;48.800;9.540;2022-09-12T13:23:01;29.20;76.60
17421;DHT22;8828;48.800;9.540;2022-09-12T13:25:31;29.30;76.10
17421;DHT22;8828;48.800;9.540;2022-09-12T13:28:05;29.40;76.40
17421;DHT22;8828;48.800;9.540;2022-09-12T13:30:35;29.50;75.90
17421;DHT22;8828;48.800;9.540;2022-09-12T13:33:10;29.50;75.20
17421;DHT22;8828;48.800;9.540;2022-09-12T13:35:49;29.60;75.30
17421;DHT22;8828;48.800;9.540;2022-09-12T13:38:29;29.70;74.50
17421;DHT22;8828;48.800;9.540;2022-09-12T13:41:16;29.80;74.80
17421;DHT22;8828;48.800;9.540;2022-09-12T13:43:47;29.80;73.80
17421;DHT22;8828;48.800;9.540;2022-09-12T13:46:17;29.70;74.40
17421;DHT22;8828;48.800;9.540;2022-09-12T13:48:47;29.70;73.50
17421;DHT22;8828;48.800;9.540;2022-09-12T13:51:21;29.60;73.00
17421;DHT22;8828;48.800;9.540;2022-09-12T13:53:52;29.50;73.20
17421;DHT22;8828;48.800;9.540;2022-09-12T13:56:23;29.10;73.10
17421;DHT22;8828;48.800;9.540;2022-09-12T13:58:52;28.80;75.90
17421;DHT22;8828;48.800;9.540;2022-09-12T14:01:23;28.40;77.40
17421;DHT22;8828;48.800;9.540;2022-09-12T14:03:52;28.20;77.90
17421;DHT22;8828;48.800;9.540;2022-09-12T14:06:45;27.90;77.90
17421;DHT22;8828;48.800;9.540;2022-09-12T14:09:31;27.70;79.30
17421;DHT22;8828;48.800;9.540;2022-09-12T14:11:59;27.50;79.20
17421;DHT22;8828;48.800;9.540;2022-09-12T14:14:30;27.30;79.40
17421;DHT22;8828;48.800;9.540;2022-09-12T14:16:59;27.20;80.10
17421;DHT22;8828;48.800;9.540;2022-09-12T14:19:28;27.10;80.80
17421;DHT22;8828;48.800;9.540;2022-09-12T14:22:00;26.90;79.90
17421;DHT22;8828;48.800;9.540;2022-09-12T14:24:29;26.90;81.10
17421;DHT22;8828;48.800;9.540;2022-09-12T14:26:58;26.70;78.50
17421;DHT22;8828;48.800;9.540;2022-09-12T14:29:26;26.70;79.60
17421;DHT22;8828;48.800;9.540;2022-09-12T14:32:02;26.60;78.50
17421;DHT22;8828;48.800;9.540;2022-09-12T14:34:30;26.50;78.60
17421;DHT22;8828;48.800;9.540;2022-09-12T14:36:58;26.50;78.80
17421;DHT22;8828;48.800;9.540;2022-09-12T14:39:31;26.40;78.10
17421;DHT22;8828;48.800;9.540;2022-09-12T14:42:02;26.30;78.20
17421;DHT22;8828;48.800;9.540;2022-09-12T14:44:31;26.30;78.90
17421;DHT22;8828;48.800;9.540;2022-09-12T14:47:11;26.30;78.50
17421;DHT22;8828;48.800;9.540;2022-09-12T14:49:40;26.20;78.50
17421;DHT22;8828;48.800;9.540;2022-09-12T14:52:22;26.10;77.60
17421;DHT22;8828;48.800;9.540;2022-09-12T14:55:00;26.10;79.00
17421;DHT22;8828;48.800;9.540;2022-09-12T14:57:34;26.10;79.00
17421;DHT22;8828;48.800;9.540;2022-09-12T15:00:15;26.10;79.60
17421;DHT22;8828;48.800;9.540;2022-09-12T15:02:47;26.10;79.70
17421;DHT22;8828;48.800;9.540;2022-09-12T15:05:20;26.10;79.90
17421;DHT22;8828;48.800;9.540;2022-09-12T15:07:57;26.10;80.10
17421;DHT22;8828;48.800;9.540;2022-09-12T15:10:29;26.10;81.50
17421;DHT22;8828;48.800;9.540;2022-09-12T15:13:15;26.10;81.60
17421;DHT22;8828;48.800;9.540;2022-09-12T15:15:46;26.10;80.60
17421;DHT22;8828;48.800;9.540;2022-09-12T15:18:14;26.00;80.00
17421;DHT22;8828;48.800;9.540;2022-09-12T15:20:46;26.00;79.80
17421;DHT22;8828;48.800;9.540;2022-09-12T15:23:17;26.00;79.20
17421;DHT22;8828;48.800;9.540;2022-09-12T15:25:47;26.00;78.80
17421;DHT22;8828;48.800;9.540;2022-09-12T15:28:17;26.00;78.50
17421;DHT22;8828;48.800;9.540;2022-09-12T15:30:47;26.00;78.80
17421;DHT22;8828;48.800;9.540;2022-09-12T15:33:17;26.00;78.40
17421;DHT22;8828;48.800;9.540;2022-09-12T15:35:46;26.00;78.10
17421;DHT22;8828;48.800;9.540;2022-09-12T15:38:14;25.90;77.70
17421;DHT22;8828;48.800;9.540;2022-09-12T15:40:42;25.90;78.50
17421;DHT22;8828;48.800;9.540;2022-09-12T15:43:12;25.90;79.80
17421;DHT22;8828;48.800;9.540;2022-09-12T15:45:41;25.90;79.50
17421;DHT22;8828;48.800;9.540;2022-09-12T15:48:10;25.90;79.60
17421;DHT22;8828;48.800;9.540;2022-09-12T15:50:39;25.80;79.90
17421;DHT22;8828;48.800;9.540;2022-09-12T15:53:12;25.80;80.20
17421;DHT22;8828;48.800;9.540;2022-09-12T15:55:40;25.80;80.10
17421;DHT22;8828;48.800;9.540;2022-09-12T15:58:09;25.80;81.00
17421;DHT22;8828;48.800;9.540;2022-09-12T16:00:38;25.80;80.70
17421;DHT22;8828;48.800;9.540;2022-09-12T16:03:16;25.80;79.80
17421;DHT22;8828;48.800;9.540;2022-09-12T16:05:46;25.80;79.20
17421;DHT22;8828;48.800;9.540;2022-09-12T16:08:14;25.80;79.90
17421;DHT22;8828;48.800;9.540;2022-09-12T16:10:43;25.70;80.60
17421;DHT22;8828;48.800;9.540;2022-09-12T16:13:10;25.70;80.30
17421;DHT22;8828;48.800;9.540;2022-09-12T16:15:40;25.70;81.20
17421;DHT22;8828;48.800;9.540;2022-09-12T16:18:08;25.70;80.40
17421;DHT22;8828;48.800;9.540;2022-09-12T16:20:37;25.70;79.80
17421;DHT22;8828;48.800;9.540;2022-09-12T16:23:06;25.70;79.60
17421;DHT22;8828;48.800;9.540;2022-09-12T16:25:33;25.60;79.20
17421;DHT22;8828;48.800;9.540;2022-09-12T16:28:03;25.60;79.20
17421;DHT22;8828;48.800;9.540;2022-09-12T16:30:31;25.60;79.20
17421;DHT22;8828;48.800;9.540;2022-09-12T16:33:00;25.50;79.40
17421;DHT22;8828;48.800;9.540;2022-09-12T16:35:30;25.50;79.40
17421;DHT22;8828;48.800;9.540;2022-09-12T16:37:58;25.50;79.50
17421;DHT22;8828;48.800;9.540;2022-09-12T16:40:27;25.50;79.40